Time;durP1;ratioP1;P1;durP2;ratioP2;P2;SDS_P1;SDS_P2;PMS_P1;PMS_P2;Temp;Humidity;BMP_temperature;BMP_pressure;BME280_temperature;BME280_humidity;BME280_pressure;Samples;Min_cycle;Max_cycle;Signal;HPM_P1;HPM_P2
2021/05/28 00:02:16;;;;;;;7.25;3.25;;;19.00;99.90;;;;;;4953281;29;20027;-75
2021/05/28 00:04:42;;;;;;;7.05;3.67;;;19.00;99.90;;;;;;4936316;29;20435;-76
2021/05/28 00:07:08;;;;;;;4.55;2.97;;;19.00;99.90;;;;;;4953262;29;20027;-76
2021/05/28 00:09:35;;;;;;;7.57;3.65;;;18.90;99.90;;;;;;4953289;29;20070;-76
2021/05/28 00:12:01;;;;;;;5.88;3.10;;;18.90;99.90;;;;;;4953322;29;20407;-77
2021/05/28 00:14:27;;;;;;;5.65;3.08;;;18.90;99.90;;;;;;4953511;29;20078;-76
2021/05/28 00:16:54;;;;;;;5.82;3.03;;;18.90;99.90;;;;;;4953280;28;20023;-75
2021/05/28 00:19:19;;;;;;;4.90;3.10;;;18.80;99.90;;;;;;4953260;29;20130;-74
2021/05/28 00:21:45;;;;;;;4.10;2.50;;;18.80;99.90;;;;;;4953606;29;20387;-75
2021/05/28 00:24:11;;;;;;;7.30;2.50;;;18.80;99.90;;;;;;4953221;29;20110;-74
2021/05/28 00:26:37;;;;;;;5.88;2.35;;;18.80;99.90;;;;;;4952194;29;20027;-74
2021/05/28 00:29:04;;;;;;;5.90;2.53;;;18.80;99.90;;;;;;4953410;29;20059;-73
2021/05/28 00:31:30;;;;;;;6.05;2.70;;;18.80;99.90;;;;;;4953346;29;20028;-75
2021/05/28 00:33:56;;;;;;;5.47;2.65;;;18.90;99.90;;;;;;4935888;29;20082;-76
2021/05/28 00:36:22;;;;;;;4.68;2.70;;;19.00;99.90;;;;;;4935871;29;20045;-75
2021/05/28 00:38:47;;;;;;;4.43;2.42;;;19.00;99.90;;;;;;4953174;29;20392;-73
2021/05/28 00:41:14;;;;;;;4.88;2.72;;;19.10;99.90;;;;;;4953068;29;20534;-73
2021/05/28 00:43:40;;;;;;;4.65;2.60;;;18.90;99.90;;;;;;4936137;29;20059;-77
2021/05/28 00:46:06;;;;;;;7.03;2.88;;;18.90;99.90;;;;;;4935922;29;20059;-75
2021/05/28 00:48:32;;;;;;;5.78;2.92;;;19.00;99.90;;;;;;4953350;29;20043;-76
2021/05/28 00:50:58;;;;;;;4.97;2.90;;;19.00;99.90;;;;;;4953177;29;20357;-76
2021/05/28 00:53:26;;;;;;;5.13;2.65;;;18.70;99.90;;;;;;4952980;29;20037;-76
2021/05/28 00:55:54;;;;;;;5.32;3.00;;;18.80;99.90;;;;;;4951325;29;20395;-76
2021/05/28 00:58:20;;;;;;;6.30;2.90;;;18.70;99.90;;;;;;4952933;29;20024;-77
2021/05/28 01:00:48;;;;;;;5.07;2.78;;;18.80;99.90;;;;;;4952840;29;20032;-77
2021/05/28 01:03:14;;;;;;;5.50;2.80;;;18.80;99.90;;;;;;4953032;29;20054;-75
2021/05/28 01:05:40;;;;;;;6.75;2.95;;;18.90;99.90;;;;;;4952735;29;20059;-77
2021/05/28 01:08:06;;;;;;;5.75;3.17;;;18.90;99.90;;;;;;4951680;29;20483;-76
2021/05/28 01:10:31;;;;;;;7.07;3.15;;;18.80;99.90;;;;;;4952778;29;20083;-77
2021/05/28 01:13:05;;;;;;;5.13;3.05;;;18.70;99.90;;;;;;4952847;29;20038;-75
2021/05/28 01:15:32;;;;;;;6.50;3.50;;;18.70;99.90;;;;;;4952925;29;20028;-74
2021/05/28 01:17:58;;;;;;;7.30;3.88;;;18.70;99.90;;;;;;4952678;28;20494;-75
2021/05/28 01:20:23;;;;;;;7.28;3.88;;;18.60;99.90;;;;;;4952710;29;20039;-74
2021/05/28 01:22:52;;;;;;;8.43;3.33;;;18.50;99.90;;;;;;4953066;29;20027;-76
2021/05/28 01:25:19;;;;;;;5.38;3.50;;;18.50;99.90;;;;;;4952693;29;20494;-75
2021/05/28 01:27:45;;;;;;;8.20;3.72;;;18.50;99.90;;;;;;4952980;29;20181;-75
2021/05/28 01:30:12;;;;;;;7.03;3.80;;;18.50;99.90;;;;;;4952473;29;20400;-75
2021/05/28 01:32:37;;;;;;;7.57;4.13;;;18.30;99.90;;;;;;4952842;29;20051;-74
2021/05/28 01:35:03;;;;;;;7.15;4.20;;;18.10;99.90;;;;;;4952091;29;20067;-77
2021/05/28 01:37:29;;;;;;;9.40;4.55;;;18.10;99.90;;;;;;4953729;28;20027;-75
2021/05/28 01:39:55;;;;;;;6.60;4.15;;;18.10;99.90;;;;;;4954912;29;20391;-75
2021/05/28 01:42:21;;;;;;;7.45;4.18;;;18.10;99.90;;;;;;4955999;29;20051;-76
2021/05/28 01:44:47;;;;;;;8.18;4.07;;;18.20;99.90;;;;;;4956004;29;20029;-73
2021/05/28 01:47:13;;;;;;;6.57;3.92;;;18.10;99.90;;;;;;4955959;29;20031;-75
2021/05/28 01:49:40;;;;;;;6.25;3.65;;;17.80;99.90;;;;;;4955782;29;20067;-75
2021/05/28 01:52:08;;;;;;;7.78;4.18;;;17.90;99.90;;;;;;4955710;29;20015;-76
2021/05/28 01:54:34;;;;;;;7.65;4.10;;;18.00;99.90;;;;;;4394185;29;20043;-75
2021/05/28 01:57:03;;;;;;;7.97;4.07;;;18.10;99.90;;;;;;4941310;29;20385;-76
2021/05/28 01:59:28;;;;;;;7.82;3.65;;;18.10;99.90;;;;;;4919693;29;20436;-76
2021/05/28 02:01:55;;;;;;;7.57;4.30;;;18.20;99.90;;;;;;4936402;29;20480;-78
2021/05/28 02:04:24;;;;;;;7.15;4.43;;;18.20;99.90;;;;;;4936256;29;20107;-75
2021/05/28 02:06:51;;;;;;;7.57;5.13;;;18.20;99.90;;;;;;4936301;29;20032;-76
2021/05/28 02:09:17;;;;;;;7.32;4.03;;;18.10;99.90;;;;;;4936591;29;20142;-74
2021/05/28 02:11:43;;;;;;;7.85;4.18;;;18.00;99.90;;;;;;4936004;29;20031;-75
2021/05/28 02:14:09;;;;;;;6.53;4.18;;;17.90;99.90;;;;;;4919470;29;20028;-75
2021/05/28 02:16:35;;;;;;;6.85;3.80;;;17.90;99.90;;;;;;4936250;29;20079;-76
2021/05/28 02:19:01;;;;;;;6.50;4.30;;;17.90;99.90;;;;;;4919315;29;20030;-75
2021/05/28 02:21:30;;;;;;;6.93;4.22;;;17.90;99.90;;;;;;4936144;29;20115;-74
2021/05/28 02:23:56;;;;;;;9.82;4.93;;;17.80;99.90;;;;;;4918723;29;20031;-74
2021/05/28 02:26:22;;;;;;;9.68;4.60;;;17.80;99.90;;;;;;4935751;29;20388;-74
2021/05/28 02:28:48;;;;;;;6.72;3.83;;;17.90;99.90;;;;;;4919270;29;20611;-77
2021/05/28 02:31:14;;;;;;;11.82;4.25;;;17.90;99.90;;;;;;4918855;29;20075;-78
2021/05/28 02:33:40;;;;;;;7.38;4.43;;;18.00;99.90;;;;;;4936403;29;20031;-76
2021/05/28 02:36:07;;;;;;;8.48;4.30;;;18.00;99.90;;;;;;4935541;29;20031;-73
2021/05/28 02:38:33;;;;;;;9.30;4.10;;;18.00;99.90;;;;;;4918919;29;20068;-74
2021/05/28 02:40:59;;;;;;;7.40;3.85;;;17.90;99.90;;;;;;4918578;29;20031;-75
2021/05/28 02:43:26;;;;;;;9.05;5.07;;;17.90;99.90;;;;;;4918800;29;20110;-77
2021/05/28 02:45:52;;;;;;;6.43;4.47;;;17.80;99.90;;;;;;4935795;29;20028;-76
2021/05/28 02:48:19;;;;;;;6.60;4.28;;;17.90;99.90;;;;;;4935730;29;20039;-74
2021/05/28 02:50:46;;;;;;;9.57;4.63;;;17.90;99.90;;;;;;4935151;29;20110;-76
2021/05/28 02:53:11;;;;;;;6.18;4.18;;;17.90;99.90;;;;;;4918696;29;20040;-76
2021/05/28 02:55:38;;;;;;;7.50;4.78;;;17.70;99.90;;;;;;4949141;28;20047;-77
2021/05/28 02:58:05;;;;;;;9.35;4.25;;;17.70;99.90;;;;;;4954662;29;20031;-79
2021/05/28 03:00:30;;;;;;;9.75;4.72;;;17.70;99.90;;;;;;4954776;29;20055;-74
2021/05/28 03:02:56;;;;;;;8.00;4.63;;;17.90;99.90;;;;;;4954712;29;20066;-76
2021/05/28 03:05:22;;;;;;;8.60;5.10;;;17.70;99.90;;;;;;4954540;28;20035;-75
2021/05/28 03:07:48;;;;;;;6.60;4.18;;;17.80;99.90;;;;;;4953272;29;20035;-76
2021/05/28 03:10:14;;;;;;;6.90;4.55;;;17.90;99.90;;;;;;4954469;28;20031;-77
2021/05/28 03:12:39;;;;;;;8.95;5.05;;;17.80;99.90;;;;;;4953075;29;20027;-76
2021/05/28 03:15:06;;;;;;;6.63;4.35;;;17.80;99.90;;;;;;4954089;28;20062;-79
2021/05/28 03:17:33;;;;;;;9.02;4.55;;;17.80;99.90;;;;;;4954331;28;20031;-79
2021/05/28 03:19:59;;;;;;;7.38;4.53;;;17.60;99.90;;;;;;4953144;29;20399;-75
2021/05/28 03:22:34;;;;;;;8.65;5.30;;;17.30;99.90;;;;;;4954177;28;20031;-75
2021/05/28 03:25:07;;;;;;;8.13;4.75;;;17.50;99.90;;;;;;4954115;28;20126;-76
2021/05/28 03:27:33;;;;;;;8.52;5.88;;;17.70;99.90;;;;;;4954055;28;20050;-77
2021/05/28 03:30:00;;;;;;;8.85;5.20;;;17.80;99.90;;;;;;4954235;28;20058;-78
2021/05/28 03:32:25;;;;;;;8.00;5.07;;;17.80;99.90;;;;;;4953982;29;20059;-80
2021/05/28 03:34:53;;;;;;;10.30;5.45;;;17.90;99.90;;;;;;4953566;29;20109;-78
2021/05/28 03:37:19;;;;;;;11.55;6.85;;;17.90;99.90;;;;;;4954048;28;20078;-76
2021/05/28 03:39:48;;;;;;;10.70;5.47;;;17.80;99.90;;;;;;4953943;28;20404;-78
2021/05/28 03:42:14;;;;;;;11.57;4.72;;;17.70;99.90;;;;;;4953783;28;20035;-78
2021/05/28 03:44:40;;;;;;;9.90;4.60;;;17.50;99.90;;;;;;4952740;29;20023;-78
2021/05/28 03:47:06;;;;;;;10.10;4.55;;;17.60;99.90;;;;;;4953645;28;20627;-78
2021/05/28 03:49:32;;;;;;;8.23;4.60;;;16.70;99.90;;;;;;4952673;29;20035;-78
2021/05/28 03:51:58;;;;;;;8.80;4.65;;;16.40;99.90;;;;;;4953604;29;20031;-79
2021/05/28 03:54:24;;;;;;;7.32;4.65;;;16.30;99.90;;;;;;4953535;28;20043;-77
2021/05/28 03:56:49;;;;;;;9.93;5.00;;;16.60;99.90;;;;;;4953720;28;20031;-79
2021/05/28 03:59:15;;;;;;;9.85;5.15;;;17.00;99.90;;;;;;4953752;29;20419;-76
2021/05/28 04:01:42;;;;;;;9.38;4.78;;;17.30;99.90;;;;;;4953534;28;20059;-77
2021/05/28 04:04:08;;;;;;;9.68;4.85;;;17.60;99.90;;;;;;4954282;29;20027;-76
2021/05/28 04:06:34;;;;;;;7.53;4.30;;;17.50;99.90;;;;;;4953453;29;20046;-77
2021/05/28 04:08:59;;;;;;;9.20;5.30;;;17.50;99.90;;;;;;4953372;29;20035;-77
2021/05/28 04:11:26;;;;;;;11.38;5.25;;;17.50;99.90;;;;;;4953419;29;20023;-78
2021/05/28 04:13:52;;;;;;;9.07;4.60;;;17.70;99.90;;;;;;4953264;29;20027;-75
2021/05/28 04:16:18;;;;;;;9.40;4.70;;;17.90;99.90;;;;;;4953417;28;20479;-79
2021/05/28 04:18:43;;;;;;;7.40;4.53;;;18.10;99.90;;;;;;4953257;29;20035;-80
2021/05/28 04:21:10;;;;;;;9.98;4.70;;;18.20;99.90;;;;;;4953041;29;20479;-80
2021/05/28 04:23:36;;;;;;;8.63;4.80;;;18.20;99.90;;;;;;4952107;29;20031;-77
2021/05/28 04:26:02;;;;;;;8.18;4.97;;;18.10;99.90;;;;;;4953264;29;20031;-78
2021/05/28 04:28:28;;;;;;;7.53;5.03;;;18.10;99.90;;;;;;4953228;29;20039;-78
2021/05/28 04:30:55;;;;;;;7.60;5.03;;;18.10;99.90;;;;;;4952126;29;20397;-78
2021/05/28 04:33:22;;;;;;;8.82;4.95;;;18.10;99.90;;;;;;4953518;29;20061;-77
2021/05/28 04:35:47;;;;;;;8.10;5.45;;;18.10;99.90;;;;;;4953196;29;20023;-75
2021/05/28 04:38:13;;;;;;;11.43;5.72;;;18.20;99.90;;;;;;4952715;29;20027;-75
2021/05/28 04:40:39;;;;;;;8.40;4.97;;;18.30;99.90;;;;;;4953382;29;20047;-76
2021/05/28 04:43:05;;;;;;;9.05;5.53;;;18.40;99.90;;;;;;4953065;29;20383;-76
2021/05/28 04:45:31;;;;;;;8.20;5.20;;;18.10;99.90;;;;;;4953066;29;20567;-75
2021/05/28 04:47:56;;;;;;;8.95;5.40;;;18.00;99.90;;;;;;4953218;29;20463;-80
2021/05/28 04:50:30;;;;;;;8.80;5.35;;;18.10;99.90;;;;;;4952939;28;20074;-78
2021/05/28 04:53:03;;;;;;;10.35;6.53;;;18.20;99.90;;;;;;4952687;28;20031;-76
2021/05/28 04:55:30;;;;;;;13.00;5.50;;;18.30;99.90;;;;;;4953232;29;20381;-79
2021/05/28 04:57:56;;;;;;;14.88;5.50;;;18.50;99.90;;;;;;4936065;29;20027;-79
2021/05/28 05:00:23;;;;;;;11.23;5.57;;;18.60;99.90;;;;;;4916950;29;20038;-77
2021/05/28 05:02:49;;;;;;;9.02;4.95;;;18.60;99.90;;;;;;4934071;29;20035;-79
2021/05/28 05:05:16;;;;;;;7.72;5.20;;;18.50;99.90;;;;;;4934177;29;20036;-79
2021/05/28 05:07:42;;;;;;;11.88;5.88;;;18.60;99.90;;;;;;4933964;29;20039;-77
2021/05/28 05:10:09;;;;;;;8.23;4.82;;;18.50;99.90;;;;;;4933597;29;20047;-78
2021/05/28 05:12:35;;;;;;;8.38;5.25;;;18.80;99.90;;;;;;4934695;29;20388;-78
2021/05/28 05:15:01;;;;;;;9.55;5.25;;;18.90;99.90;;;;;;4937153;29;20503;-76
2021/05/28 05:17:26;;;;;;;8.43;5.57;;;18.80;99.90;;;;;;4937415;29;20064;-75
2021/05/28 05:19:52;;;;;;;9.45;5.53;;;18.90;99.90;;;;;;4937074;29;20042;-75
2021/05/28 05:22:18;;;;;;;9.20;5.88;;;18.90;99.90;;;;;;4936869;29;20027;-74
2021/05/28 05:24:44;;;;;;;9.68;5.55;;;19.00;99.90;;;;;;4937012;29;20047;-75
2021/05/28 05:27:09;;;;;;;8.70;6.00;;;19.00;99.90;;;;;;4936737;29;20159;-75
2021/05/28 05:29:35;;;;;;;11.30;5.40;;;19.00;99.90;;;;;;4936725;29;20031;-74
2021/05/28 05:32:01;;;;;;;8.43;4.80;;;18.90;99.90;;;;;;4936306;29;20027;-76
2021/05/28 05:34:27;;;;;;;45.13;30.13;;;19.00;99.90;;;;;;4936921;29;20042;-76
2021/05/28 05:36:53;;;;;;;118.90;67.95;;;19.40;99.90;;;;;;4936616;29;20031;-76
2021/05/28 05:39:21;;;;;;;63.72;38.55;;;19.50;99.90;;;;;;4936721;29;20036;-73
2021/05/28 05:41:47;;;;;;;72.85;49.60;;;19.60;99.90;;;;;;4926579;29;20028;-77
2021/05/28 05:44:13;;;;;;;30.83;19.98;;;19.70;99.90;;;;;;4917617;29;20055;-77
2021/05/28 05:46:39;;;;;;;15.57;8.73;;;19.80;99.90;;;;;;4917589;29;20032;-74
2021/05/28 05:49:05;;;;;;;13.38;7.25;;;19.70;99.90;;;;;;4917853;29;20071;-77
2021/05/28 05:51:31;;;;;;;26.17;13.63;;;19.70;99.90;;;;;;4917379;29;20115;-76
2021/05/28 05:53:57;;;;;;;148.18;97.32;;;20.00;99.90;;;;;;4917884;29;20107;-77
2021/05/28 05:56:24;;;;;;;58.42;40.88;;;19.90;99.90;;;;;;4938078;29;20035;-76
2021/05/28 05:58:50;;;;;;;15.27;9.30;;;19.80;99.90;;;;;;4941994;29;20054;-74
2021/05/28 06:01:16;;;;;;;12.32;7.38;;;19.90;99.90;;;;;;4944885;29;20023;-78
2021/05/28 06:03:42;;;;;;;11.85;5.78;;;19.90;99.90;;;;;;4954903;29;20034;-80
2021/05/28 06:06:08;;;;;;;11.35;5.95;;;19.90;99.90;;;;;;4955280;29;20035;-78
2021/05/28 06:08:33;;;;;;;16.48;7.47;;;20.10;99.90;;;;;;4953451;29;20376;-79
2021/05/28 06:10:59;;;;;;;13.68;6.68;;;20.40;99.90;;;;;;4954851;29;20391;-80
2021/05/28 06:13:25;;;;;;;11.63;6.70;;;20.40;99.90;;;;;;4954778;29;20053;-74
2021/05/28 06:15:51;;;;;;;11.35;6.70;;;20.30;99.90;;;;;;4954555;28;20015;-79
2021/05/28 06:18:17;;;;;;;19.65;7.55;;;20.40;99.90;;;;;;4955638;29;20031;-78
2021/05/28 06:20:43;;;;;;;194.50;126.68;;;20.40;99.90;;;;;;4953692;29;20036;-74
2021/05/28 06:23:09;;;;;;;88.53;60.35;;;20.50;99.90;;;;;;4953385;28;20031;-78
2021/05/28 06:25:36;;;;;;;67.97;46.72;;;20.50;99.90;;;;;;4953923;28;20115;-77
2021/05/28 06:28:02;;;;;;;23.60;14.02;;;20.50;99.90;;;;;;4954629;28;20388;-77
2021/05/28 06:30:28;;;;;;;16.63;9.70;;;20.60;99.90;;;;;;4954964;28;20571;-75
2021/05/28 06:32:54;;;;;;;12.90;7.35;;;20.60;99.90;;;;;;4954976;29;20036;-79
2021/05/28 06:35:19;;;;;;;14.80;8.10;;;20.60;99.90;;;;;;4953439;29;20032;-80
2021/05/28 06:37:45;;;;;;;13.35;7.05;;;20.50;99.90;;;;;;4953701;29;20163;-76
2021/05/28 06:40:12;;;;;;;10.32;6.15;;;20.20;99.90;;;;;;4954440;29;20031;-77
2021/05/28 06:42:38;;;;;;;14.15;5.72;;;19.00;99.90;;;;;;4950662;29;20360;-75
2021/05/28 06:45:04;;;;;;;17.83;4.38;;;18.70;99.90;;;;;;4947196;29;20487;-74
2021/05/28 06:47:30;;;;;;;7.28;3.13;;;18.80;99.90;;;;;;4952843;29;20127;-74
2021/05/28 06:49:56;;;;;;;8.45;2.67;;;18.80;99.90;;;;;;4954415;29;20125;-76
2021/05/28 06:52:21;;;;;;;8.57;2.10;;;18.60;99.90;;;;;;4954156;29;20031;-75
2021/05/28 06:54:48;;;;;;;6.80;2.13;;;18.40;99.90;;;;;;4953569;29;20039;-77
2021/05/28 06:57:14;;;;;;;9.55;2.47;;;18.30;99.90;;;;;;4953846;29;20490;-76
2021/05/28 06:59:40;;;;;;;14.32;2.40;;;18.30;99.90;;;;;;4954315;29;20479;-78
2021/05/28 07:02:06;;;;;;;7.07;1.80;;;18.20;99.90;;;;;;4953730;29;20031;-77
2021/05/28 07:04:33;;;;;;;6.97;2.03;;;18.30;99.90;;;;;;4954246;29;20392;-75
2021/05/28 07:07:00;;;;;;;8.48;1.90;;;18.30;99.90;;;;;;4953913;29;20028;-77
2021/05/28 07:09:41;;;;;;;4.28;1.73;;;18.30;99.90;;;;;;4952139;29;20126;-75
2021/05/28 07:12:07;;;;;;;4.38;1.88;;;18.10;99.90;;;;;;4952485;29;20027;-75
2021/05/28 07:14:33;;;;;;;4.15;1.85;;;18.00;99.90;;;;;;4953902;29;20062;-75
2021/05/28 07:16:59;;;;;;;4.72;1.70;;;18.00;99.90;;;;;;4953532;29;20481;-76
2021/05/28 07:19:24;;;;;;;3.20;1.70;;;17.70;99.90;;;;;;4954067;29;20035;-75
2021/05/28 07:21:50;;;;;;;3.42;1.50;;;17.60;99.90;;;;;;4952780;29;20016;-74
2021/05/28 07:24:16;;;;;;;4.53;2.17;;;17.50;99.90;;;;;;4953510;29;20452;-76
2021/05/28 07:26:41;;;;;;;2.13;1.60;;;17.30;99.90;;;;;;4953474;29;20033;-76
2021/05/28 07:29:07;;;;;;;2.58;1.60;;;17.10;99.90;;;;;;4951095;29;20038;-75
2021/05/28 07:31:33;;;;;;;4.80;1.83;;;17.10;99.90;;;;;;4952180;28;20042;-73
2021/05/28 07:33:59;;;;;;;5.90;2.70;;;16.90;99.90;;;;;;4953035;28;20602;-75
2021/05/28 07:36:25;;;;;;;7.80;3.95;;;17.00;99.90;;;;;;4951922;28;20487;-75
2021/05/28 07:38:51;;;;;;;3.10;1.83;;;16.90;99.90;;;;;;4952931;28;20110;-75
2021/05/28 07:41:17;;;;;;;3.78;2.20;;;17.10;99.90;;;;;;4951719;29;20027;-75
2021/05/28 07:43:42;;;;;;;8.00;1.70;;;17.20;99.90;;;;;;4952809;28;20027;-74
2021/05/28 07:46:08;;;;;;;4.13;1.80;;;17.20;99.90;;;;;;4952683;28;20479;-73
2021/05/28 07:48:34;;;;;;;7.75;2.00;;;17.00;99.90;;;;;;4952453;29;20038;-74
2021/05/28 07:51:00;;;;;;;6.57;1.90;;;17.10;99.90;;;;;;4952022;29;20027;-72
2021/05/28 07:53:27;;;;;;;6.55;1.67;;;17.30;99.90;;;;;;4952207;28;20122;-72
2021/05/28 07:56:05;;;;;;;4.18;1.80;;;17.20;99.90;;;;;;4960253;28;20149;-73
2021/05/28 07:58:31;;;;;;;7.43;1.80;;;17.20;99.90;;;;;;4955838;28;20023;-74
2021/05/28 08:00:57;;;;;;;2.83;1.80;;;16.90;99.90;;;;;;4944582;28;20018;-75
2021/05/28 08:03:23;;;;;;;4.07;2.00;;;17.20;99.90;;;;;;4963155;28;20383;-74
2021/05/28 08:05:51;;;;;;;3.80;1.95;;;16.90;99.90;;;;;;4952925;28;20031;-73
2021/05/28 08:08:19;;;;;;;2.22;1.70;;;17.10;99.90;;;;;;4955571;28;20045;-72
2021/05/28 08:10:45;;;;;;;3.40;1.70;;;17.00;99.90;;;;;;4964021;28;20026;-75
2021/05/28 08:13:11;;;;;;;3.13;1.80;;;17.00;99.90;;;;;;4942217;29;20042;-74
2021/05/28 08:15:37;;;;;;;4.88;1.90;;;17.20;99.90;;;;;;4957329;28;20027;-72
2021/05/28 08:18:04;;;;;;;3.67;1.85;;;17.30;99.90;;;;;;4955491;28;20384;-78
2021/05/28 08:20:31;;;;;;;2.60;1.77;;;17.30;99.90;;;;;;4960412;28;20122;-76
2021/05/28 08:22:59;;;;;;;4.60;1.90;;;17.60;99.90;;;;;;4958834;28;20027;-74
2021/05/28 08:25:26;;;;;;;7.38;2.20;;;17.70;99.90;;;;;;4965089;28;20479;-77
2021/05/28 08:27:52;;;;;;;2.45;1.80;;;17.70;99.90;;;;;;4944269;28;20035;-78
2021/05/28 08:30:18;;;;;;;9.48;5.68;;;17.80;99.90;;;;;;4936044;29;20408;-77
2021/05/28 08:32:45;;;;;;;6.55;3.15;;;17.90;99.90;;;;;;4952458;28;20039;-80
2021/05/28 08:35:11;;;;;;;5.63;1.85;;;18.20;99.90;;;;;;4935363;29;20373;-74
2021/05/28 08:37:37;;;;;;;3.63;1.80;;;18.50;99.90;;;;;;4952712;29;20510;-73
2021/05/28 08:40:04;;;;;;;3.50;1.48;;;19.00;99.90;;;;;;4952658;29;20071;-73
2021/05/28 08:42:30;;;;;;;4.00;1.92;;;19.50;99.90;;;;;;4952181;29;20023;-76
2021/05/28 08:44:56;;;;;;;10.45;3.10;;;20.00;99.90;;;;;;4952931;29;20027;-72
2021/05/28 08:47:23;;;;;;;3.55;1.95;;;20.40;99.60;;;;;;4953360;28;20028;-76
2021/05/28 08:49:53;;;;;;;5.25;2.05;;;20.40;99.10;;;;;;4956726;29;20046;-72
2021/05/28 08:52:23;;;;;;;6.22;1.73;;;20.40;99.50;;;;;;4956349;29;20023;-73
2021/05/28 08:54:49;;;;;;;5.28;1.80;;;20.60;98.90;;;;;;4956009;29;20055;-76
2021/05/28 08:57:18;;;;;;;3.92;1.70;;;20.60;98.10;;;;;;4940183;29;20039;-73
2021/05/28 08:59:47;;;;;;;6.35;2.90;;;20.80;97.70;;;;;;4935821;29;20024;-74
2021/05/28 09:02:39;;;;;;;5.30;1.98;;;21.00;97.90;;;;;;4936887;29;20047;-74
2021/05/28 09:05:22;;;;;;;3.05;1.50;;;21.20;97.30;;;;;;4937416;29;20051;-75
2021/05/28 09:07:59;;;;;;;4.72;1.80;;;21.50;96.40;;;;;;4937331;29;20111;-73
2021/05/28 09:10:29;;;;;;;6.10;1.52;;;21.60;96.10;;;;;;4937553;29;20080;-76
2021/05/28 09:13:05;;;;;;;4.93;1.60;;;21.70;96.20;;;;;;4937042;29;20028;-75
2021/05/28 09:15:31;;;;;;;3.45;1.40;;;21.40;95.70;;;;;;4918541;29;20044;-75
2021/05/28 09:17:57;;;;;;;3.78;1.23;;;21.20;95.60;;;;;;4930229;29;20064;-76
2021/05/28 09:20:24;;;;;;;3.33;1.75;;;20.90;95.60;;;;;;4940053;29;20039;-73
2021/05/28 09:23:16;;;;;;;5.05;1.60;;;21.20;96.50;;;;;;4955928;29;20539;-74
2021/05/28 09:25:56;;;;;;;2.05;1.20;;;21.20;95.90;;;;;;4956108;29;20057;-74
2021/05/28 09:28:23;;;;;;;4.20;2.30;;;21.20;95.70;;;;;;4955452;29;20365;-72
2021/05/28 09:31:04;;;;;;;3.38;1.40;;;21.60;95.40;;;;;;4937561;29;20034;-72
2021/05/28 09:33:35;;;;;;;3.63;1.52;;;22.00;94.80;;;;;;4947349;29;20544;-74
2021/05/28 09:36:33;;;;;;;3.15;1.40;;;22.40;93.70;;;;;;4955220;29;20431;-72
2021/05/28 09:39:08;;;;;;;3.03;1.38;;;21.80;93.40;;;;;;4944263;28;20172;-72
2021/05/28 09:41:45;;;;;;;3.40;1.35;;;21.70;94.00;;;;;;4955567;29;20379;-73
2021/05/28 09:44:23;;;;;;;3.35;1.30;;;21.40;93.40;;;;;;4950306;29;20028;-74
2021/05/28 09:47:06;;;;;;;3.65;1.60;;;21.60;93.90;;;;;;4934874;29;20030;-73
2021/05/28 09:49:42;;;;;;;3.67;1.60;;;21.90;93.30;;;;;;4936232;29;20040;-73
2021/05/28 09:52:13;;;;;;;2.75;1.42;;;22.10;93.00;;;;;;4936052;29;20106;-74
2021/05/28 09:54:59;;;;;;;3.25;1.23;;;22.40;92.00;;;;;;4942498;28;20471;-74
2021/05/28 09:57:40;;;;;;;2.28;1.40;;;22.20;92.10;;;;;;4941220;29;20499;-75
2021/05/28 10:00:31;;;;;;;5.10;1.77;;;22.50;91.80;;;;;;4934064;29;20024;-74
2021/05/28 10:03:23;;;;;;;5.95;1.80;;;22.60;92.10;;;;;;4936043;29;20345;-75
2021/05/28 10:05:54;;;;;;;6.43;1.73;;;22.90;91.00;;;;;;4936320;29;20111;-74
2021/05/28 10:08:24;;;;;;;24.38;16.38;;;23.20;90.50;;;;;;4936298;29;20063;-77
2021/05/28 10:10:52;;;;;;;18.98;12.20;;;23.50;90.60;;;;;;4934861;29;20399;-75
2021/05/28 10:13:25;;;;;;;4.95;2.15;;;23.50;90.70;;;;;;4935962;29;20064;-76
2021/05/28 10:15:56;;;;;;;4.82;2.00;;;23.30;88.80;;;;;;4935980;29;20020;-77
2021/05/28 10:18:22;;;;;;;;;;;23.40;88.20;;;;;;4934985;29;20334;-78
2021/05/28 10:20:50;;;;;;;3.22;1.58;;;23.60;86.90;;;;;;4936139;29;19922;-73
2021/05/28 10:23:17;;;;;;;3.35;1.60;;;23.70;86.90;;;;;;4935574;29;20024;-78
2021/05/28 10:25:45;;;;;;;3.47;1.90;;;23.80;83.90;;;;;;4936061;29;20091;-75
2021/05/28 10:28:19;;;;;;;2.97;1.70;;;23.00;80.40;;;;;;4935550;29;20507;-74
2021/05/28 10:30:48;;;;;;;3.92;2.05;;;23.60;79.00;;;;;;4935776;29;20024;-73
2021/05/28 10:33:22;;;;;;;5.05;2.20;;;23.50;75.70;;;;;;4935369;29;20391;-74
2021/05/28 10:35:56;;;;;;;15.88;2.30;;;22.70;74.20;;;;;;4950050;29;20086;-73
2021/05/28 10:38:34;;;;;;;4.47;2.10;;;22.70;76.40;;;;;;4954409;29;20026;-74
2021/05/28 10:40:59;;;;;;;5.53;1.95;;;21.80;78.70;;;;;;4954718;29;20019;-82
2021/05/28 10:43:30;;;;;;;4.53;2.00;;;21.80;78.60;;;;;;4954241;29;20031;-79
2021/05/28 10:46:05;;;;;;;5.63;3.17;;;22.20;78.70;;;;;;4953446;29;20023;-75
2021/05/28 10:48:37;;;;;;;6.35;2.85;;;22.80;78.80;;;;;;4953937;28;20407;-74
2021/05/28 10:51:04;;;;;;;6.65;2.70;;;23.10;77.30;;;;;;4953972;28;20183;-75
2021/05/28 10:53:29;;;;;;;6.18;3.00;;;23.00;77.60;;;;;;4954254;28;20537;-77
2021/05/28 10:56:08;;;;;;;7.85;3.20;;;22.80;75.20;;;;;;4954048;28;20126;-74
2021/05/28 10:58:49;;;;;;;7.25;3.13;;;22.70;75.70;;;;;;4953141;29;20039;-76
2021/05/28 11:01:43;;;;;;;5.93;2.97;;;22.60;77.50;;;;;;4954091;29;20127;-76
2021/05/28 11:04:31;;;;;;;5.88;2.42;;;22.70;76.90;;;;;;4953095;29;20539;-77
2021/05/28 11:09:48;;;;;;;6.18;2.85;;;22.70;75.60;;;;;;4954054;28;20473;-77
2021/05/28 11:12:15;;;;;;;6.40;2.50;;;22.70;76.90;;;;;;4954191;29;20154;-80
2021/05/28 11:15:02;;;;;;;6.65;2.70;;;23.30;75.30;;;;;;4953240;29;20237;-76
2021/05/28 11:17:28;;;;;;;12.27;5.80;;;23.80;73.30;;;;;;4953171;29;20625;-75
2021/05/28 11:19:57;;;;;;;18.48;10.77;;;23.80;73.60;;;;;;4952880;29;20070;-76
2021/05/28 11:22:31;;;;;;;9.35;3.55;;;23.70;73.90;;;;;;4951748;29;20027;-76
2021/05/28 11:25:00;;;;;;;7.95;2.42;;;23.80;71.50;;;;;;4952858;29;20483;-76
2021/05/28 11:27:26;;;;;;;8.85;2.75;;;23.30;71.50;;;;;;4952823;29;20456;-77
2021/05/28 11:30:14;;;;;;;10.13;2.70;;;22.80;74.40;;;;;;4952851;29;20042;-75
2021/05/28 11:32:43;;;;;;;4.32;2.55;;;22.30;75.90;;;;;;4953355;29;20027;-78
2021/05/28 11:35:19;;;;;;;7.20;3.67;;;21.90;77.50;;;;;;4953542;29;20125;-76
2021/05/28 11:38:04;;;;;;;7.50;2.88;;;22.90;76.90;;;;;;4953450;29;20462;-77
2021/05/28 11:40:36;;;;;;;8.32;2.95;;;23.30;76.30;;;;;;4953568;29;20032;-74
2021/05/28 11:43:17;;;;;;;14.30;3.25;;;23.30;75.30;;;;;;4953753;29;20027;-73
2021/05/28 11:45:47;;;;;;;11.05;4.32;;;23.00;76.00;;;;;;4953324;29;20384;-80
2021/05/28 11:48:18;;;;;;;10.63;3.65;;;22.70;77.20;;;;;;4952438;29;20070;-84
2021/05/28 11:50:52;;;;;;;7.07;3.58;;;22.50;78.20;;;;;;4952856;29;20090;-74
2021/05/28 11:53:19;;;;;;;7.18;2.80;;;23.30;76.20;;;;;;4953543;29;20483;-77
2021/05/28 11:55:47;;;;;;;21.05;13.73;;;23.30;76.60;;;;;;4951920;29;20099;-75
2021/05/28 11:58:16;;;;;;;16.38;8.80;;;23.80;74.60;;;;;;4951646;29;20046;-75
2021/05/28 12:00:46;;;;;;;5.47;2.38;;;23.50;73.40;;;;;;4953167;28;20174;-74
2021/05/28 12:03:13;;;;;;;8.80;3.30;;;22.50;76.00;;;;;;4952144;29;20419;-75
2021/05/28 12:05:40;;;;;;;6.15;2.80;;;22.40;78.00;;;;;;4953099;28;20599;-75
2021/05/28 12:08:18;;;;;;;6.00;2.45;;;22.70;76.20;;;;;;4953444;28;20023;-76
2021/05/28 12:10:52;;;;;;;5.32;2.33;;;23.50;75.20;;;;;;4951777;29;20027;-75
2021/05/28 12:13:18;;;;;;;5.80;2.72;;;23.90;74.00;;;;;;4953047;28;20031;-76
2021/05/28 12:15:50;;;;;;;5.60;2.53;;;24.20;72.90;;;;;;4952963;28;20028;-75
2021/05/28 12:18:20;;;;;;;5.10;2.30;;;24.50;71.10;;;;;;4951623;29;20074;-77
2021/05/28 12:20:52;;;;;;;3.53;1.80;;;24.10;71.10;;;;;;4952016;29;20062;-77
2021/05/28 12:23:25;;;;;;;5.38;2.53;;;22.90;71.30;;;;;;4953058;28;20034;-78
2021/05/28 12:26:20;;;;;;;5.07;2.58;;;23.30;73.80;;;;;;4952874;28;20058;-76
2021/05/28 12:28:49;;;;;;;5.57;2.42;;;23.50;72.30;;;;;;4948973;29;20143;-77
2021/05/28 12:31:15;;;;;;;5.85;2.40;;;24.50;70.30;;;;;;4951687;29;20023;-78
2021/05/28 12:33:56;;;;;;;4.30;2.47;;;24.70;69.30;;;;;;4952855;28;20046;-76
2021/05/28 12:36:40;;;;;;;5.25;2.35;;;24.80;68.30;;;;;;4952730;28;20037;-75
2021/05/28 12:39:07;;;;;;;6.50;2.30;;;25.20;68.20;;;;;;4951705;29;20031;-80
2021/05/28 12:41:35;;;;;;;7.38;2.10;;;25.50;67.70;;;;;;4952892;28;20027;-82
2021/05/28 12:44:03;;;;;;;5.30;3.10;;;25.60;67.90;;;;;;4952876;28;20034;-77
2021/05/28 12:46:34;;;;;;;4.63;2.00;;;25.70;66.60;;;;;;4952612;28;20051;-78
2021/05/28 12:49:05;;;;;;;11.95;2.20;;;25.80;66.50;;;;;;4952876;28;20040;-78
2021/05/28 12:51:39;;;;;;;4.20;2.03;;;25.90;65.70;;;;;;4952637;28;20028;-78
2021/05/28 12:54:24;;;;;;;4.78;2.13;;;25.60;64.70;;;;;;4951439;29;20038;-78
2021/05/28 12:56:54;;;;;;;4.55;2.33;;;25.80;66.00;;;;;;4952019;28;20055;-78